This is the latest recevied weather packets stored in our database for station/object TK5EP-13. If no packets are shown the sender has not sent any weather packets the latest 1 day(s).
| Time | Temp. | Humidity | Pressure | Rain* | Wind** | Luminosity | Snow |
|---|---|---|---|---|---|---|---|
| 1777986804 | 17.78° C | 75% | - | - | 4.47 m/s, 218° | - | - |
| 1777986503 | 17.78° C | 77% | - | - | 3.13 m/s, 224° | - | - |
| 1777986203 | 17.78° C | 78% | - | - | 3.58 m/s, 201° | - | - |
| 1777985902 | 17.22° C | 76% | - | - | 4.47 m/s, 216° | - | - |
| 1777985601 | 17.22° C | 78% | - | - | 3.58 m/s, 220° | - | - |
| 1777985300 | 17.22° C | 79% | - | - | 3.58 m/s, 203° | - | - |
| 1777984999 | 17.22° C | 79% | - | - | 4.92 m/s, 207° | - | - |
| 1777984698 | 16.67° C | 83% | - | - | 2.68 m/s, 199° | - | - |
| 1777984398 | 16.67° C | 82% | - | - | 5.81 m/s, 213° | - | - |
| 1777984094 | 16.11° C | 86% | - | - | 4.02 m/s, 216° | - | - |
| 1777983793 | 15.56° C | 86% | - | - | 4.02 m/s, 218° | - | - |
| 1777983492 | 15.56° C | 86% | - | - | 4.92 m/s, 215° | - | - |
| 1777983189 | 15.56° C | 87% | - | - | 4.02 m/s, 213° | - | - |
| 1777982888 | 16.11° C | 87% | - | - | 4.92 m/s, 211° | - | - |
| 1777982587 | 16.11° C | 90% | - | - | 2.24 m/s, 207° | - | - |
| 1777982286 | 16.67° C | 91% | - | - | 3.13 m/s, 191° | - | - |
| 1777981985 | 16.67° C | 92% | - | - | 2.68 m/s, 179° | - | - |
| 1777981684 | 16.67° C | 92% | - | - | 3.13 m/s, 186° | - | - |
| 1777981383 | 16.11° C | 91% | - | - | 2.68 m/s, 178° | - | - |
| 1777981083 | 16.67° C | 92% | - | - | 3.58 m/s, 188° | - | - |
| 1777980779 | 16.67° C | 91% | - | - | 4.47 m/s, 213° | - | - |
| 1777980478 | 17.22° C | 93% | - | - | 4.02 m/s, 203° | - | - |
| 1777980177 | 16.67° C | 93% | - | - | 4.47 m/s, 202° | - | - |
| 1777979877 | 16.11° C | 94% | - | - | 2.68 m/s, 189° | - | - |
| 1777979576 | 16.11° C | 93% | - | - | 3.58 m/s, 215° | - | - |
* Rain since midnight (hover to see other rain measurements)
** Current wind speed in m/s (hover to see current wind gust speed)